Time;durP1;ratioP1;P1;durP2;ratioP2;P2;SDS_P1;SDS_P2;PMS_P1;PMS_P2;Temp;Humidity;BMP_temperature;BMP_pressure;BME280_temperature;BME280_humidity;BME280_pressure;Samples;Min_cycle;Max_cycle;Signal;HPM_P1;HPM_P2
2022/05/16 00:00:09;;;;;;;8.80;4.70;;;;;;;;;;5031695;28;20040;-32
2022/05/16 00:02:35;;;;;;;9.35;5.35;;;;;;;;;;5042699;28;20117;-32
2022/05/16 00:05:02;;;;;;;8.82;5.38;;;;;;;;;;5044488;28;20052;-30
2022/05/16 00:07:28;;;;;;;8.13;5.05;;;;;;;;;;5051155;28;20037;-30
2022/05/16 00:09:54;;;;;;;8.65;5.00;;;;;;;;;;5052331;28;20048;-29
2022/05/16 00:12:20;;;;;;;8.45;4.65;;;;;;;;;;5034402;28;20167;-30
2022/05/16 00:14:47;;;;;;;11.35;5.60;;;;;;;;;;5034938;28;20506;-30
2022/05/16 00:17:14;;;;;;;5.70;4.88;;;;;;;;;;5034537;28;20056;-30
2022/05/16 00:19:40;;;;;;;9.25;4.90;;;;;;;;;;5052716;28;20044;-29
2022/05/16 00:22:07;;;;;;;9.40;5.20;;;;;;;;;;5052139;28;20036;-30
2022/05/16 00:24:33;;;;;;;15.20;5.95;;;;;;;;;;5034319;28;20044;-31
2022/05/16 00:26:59;;;;;;;10.52;4.78;;;;;;;;;;5034347;28;20663;-30
2022/05/16 00:29:26;;;;;;;8.68;4.55;;;;;;;;;;5043821;28;20437;-32
2022/05/16 00:31:54;;;;;;;7.00;4.65;;;;;;;;;;5044175;28;20033;-30
2022/05/16 00:34:20;;;;;;;11.63;5.25;;;;;;;;;;5032817;28;20067;-29
2022/05/16 00:36:47;;;;;;;12.60;5.03;;;;;;;;;;5045918;28;20120;-30
2022/05/16 00:39:14;;;;;;;9.93;4.65;;;;;;;;;;5036299;28;20041;-29
2022/05/16 00:41:41;;;;;;;8.95;4.80;;;;;;;;;;5046938;28;20491;-29
2022/05/16 00:44:07;;;;;;;10.18;5.10;;;;;;;;;;5051774;28;20033;-29
2022/05/16 00:46:34;;;;;;;9.85;4.75;;;;;;;;;;5008579;28;20121;-29
2022/05/16 00:49:01;;;;;;;9.77;4.80;;;;;;;;;;5031721;28;20073;-29
2022/05/16 00:51:30;;;;;;;8.35;4.57;;;;;;;;;;5046292;28;20047;-29
2022/05/16 00:53:57;;;;;;;7.75;4.35;;;;;;;;;;5047819;28;20033;-29
2022/05/16 00:56:25;;;;;;;8.20;4.38;;;;;;;;;;5031773;28;20526;-30
2022/05/16 00:58:51;;;;;;;8.75;4.40;;;;;;;;;;5008101;28;20048;-29
2022/05/16 01:06:47;;;;;;;7.65;4.40;;;;;;;;;;5053136;28;20048;-29
2022/05/16 01:09:13;;;;;;;7.97;4.55;;;;;;;;;;5051449;28;20087;-30
2022/05/16 01:11:40;;;;;;;7.95;4.43;;;;;;;;;;5046421;28;20492;-29
2022/05/16 01:14:07;;;;;;;8.23;4.55;;;;;;;;;;5044309;28;20039;-29
2022/05/16 01:16:33;;;;;;;9.80;4.70;;;;;;;;;;5038660;28;20038;-30
2022/05/16 01:18:59;;;;;;;9.60;4.30;;;;;;;;;;5046291;28;20047;-30
2022/05/16 01:21:30;;;;;;;7.60;4.20;;;;;;;;;;5044292;28;20052;-29
2022/05/16 01:24:07;;;;;;;8.18;4.45;;;;;;;;;;5046079;28;20095;-29
2022/05/16 01:26:34;;;;;;;7.32;4.05;;;;;;;;;;5043635;28;20479;-30
2022/05/16 01:29:00;;;;;;;8.50;4.15;;;;;;;;;;5053918;28;20041;-29
2022/05/16 01:31:27;;;;;;;6.90;4.05;;;;;;;;;;5052580;28;20048;-29
2022/05/16 01:33:54;;;;;;;10.02;5.07;;;;;;;;;;5045569;28;20395;-30
2022/05/16 01:36:20;;;;;;;8.70;4.45;;;;;;;;;;5050263;28;20111;-30
2022/05/16 01:38:46;;;;;;;6.97;4.35;;;;;;;;;;5049225;28;20510;-29
2022/05/16 01:41:14;;;;;;;9.25;4.45;;;;;;;;;;5047011;28;20069;-32
2022/05/16 01:43:41;;;;;;;8.73;4.50;;;;;;;;;;5043643;28;20530;-31
2022/05/16 01:46:08;;;;;;;7.15;4.05;;;;;;;;;;5042400;28;20037;-30
2022/05/16 01:48:34;;;;;;;9.50;3.90;;;;;;;;;;5045048;28;20064;-31
2022/05/16 01:51:02;;;;;;;7.32;3.97;;;;;;;;;;5041089;28;20048;-32
2022/05/16 01:53:29;;;;;;;8.02;4.05;;;;;;;;;;5053829;28;20040;-32
2022/05/16 01:55:56;;;;;;;9.20;4.40;;;;;;;;;;5047447;28;20458;-31
2022/05/16 01:58:22;;;;;;;8.73;4.47;;;;;;;;;;5040935;28;20052;-33
2022/05/16 02:00:48;;;;;;;8.18;4.68;;;;;;;;;;5043684;28;20046;-33
2022/05/16 02:03:15;;;;;;;8.85;4.55;;;;;;;;;;5053258;28;20227;-34
2022/05/16 02:05:42;;;;;;;7.88;4.35;;;;;;;;;;5053081;28;20032;-32
2022/05/16 02:08:08;;;;;;;10.43;4.85;;;;;;;;;;5046026;28;20079;-32
2022/05/16 02:10:35;;;;;;;7.32;4.10;;;;;;;;;;5040329;28;20041;-31
2022/05/16 02:13:03;;;;;;;8.48;4.60;;;;;;;;;;5042228;28;20064;-31
2022/05/16 02:15:30;;;;;;;7.47;3.92;;;;;;;;;;5046777;28;20041;-31
2022/05/16 02:17:56;;;;;;;6.45;4.35;;;;;;;;;;5047200;28;20075;-32
2022/05/16 02:20:22;;;;;;;6.97;4.75;;;;;;;;;;5041373;28;20044;-32
2022/05/16 02:25:36;;;;;;;5.50;4.03;;;;;;;;;;5035213;28;20388;-31
2022/05/16 02:28:02;;;;;;;8.55;5.38;;;;;;;;;;5049866;28;20490;-32
2022/05/16 02:30:28;;;;;;;6.85;3.90;;;;;;;;;;5047886;28;20047;-31
2022/05/16 02:32:55;;;;;;;6.50;4.18;;;;;;;;;;5052225;28;20041;-32
2022/05/16 02:35:21;;;;;;;10.05;4.60;;;;;;;;;;5046903;28;20041;-32
2022/05/16 02:37:47;;;;;;;6.32;4.00;;;;;;;;;;5052232;28;20475;-31
2022/05/16 02:40:13;;;;;;;6.82;4.43;;;;;;;;;;5043575;28;20068;-31
2022/05/16 02:42:39;;;;;;;5.32;3.70;;;;;;;;;;5040622;28;20475;-30
2022/05/16 02:45:05;;;;;;;7.25;4.07;;;;;;;;;;5051806;28;20045;-31
2022/05/16 02:47:31;;;;;;;5.88;4.18;;;;;;;;;;5043509;28;20036;-33
2022/05/16 02:49:58;;;;;;;7.85;4.10;;;;;;;;;;5045029;28;20052;-31
2022/05/16 02:52:24;;;;;;;8.57;4.60;;;;;;;;;;5046348;28;20045;-32
2022/05/16 02:54:51;;;;;;;6.25;3.90;;;;;;;;;;5043383;28;20120;-31
2022/05/16 02:57:18;;;;;;;6.28;4.00;;;;;;;;;;5035066;28;20033;-31
2022/05/16 02:59:44;;;;;;;7.97;4.35;;;;;;;;;;5043241;28;20040;-30
2022/05/16 03:02:11;;;;;;;6.00;4.00;;;;;;;;;;5048898;28;20095;-30
2022/05/16 03:04:37;;;;;;;9.73;4.25;;;;;;;;;;5044400;28;20436;-31
2022/05/16 03:07:04;;;;;;;9.35;4.25;;;;;;;;;;5044033;28;20064;-35
2022/05/16 03:09:31;;;;;;;6.45;3.75;;;;;;;;;;5040538;28;20037;-30
2022/05/16 03:11:57;;;;;;;6.75;3.88;;;;;;;;;;5041391;28;20538;-31
2022/05/16 03:14:23;;;;;;;6.18;3.75;;;;;;;;;;5052297;28;20098;-30
2022/05/16 03:16:49;;;;;;;8.40;4.55;;;;;;;;;;5039939;28;20047;-33
2022/05/16 03:19:15;;;;;;;11.85;4.20;;;;;;;;;;5040080;28;20041;-31
2022/05/16 03:21:42;;;;;;;10.77;4.55;;;;;;;;;;5043343;28;20073;-31
2022/05/16 03:24:08;;;;;;;8.43;4.25;;;;;;;;;;5044749;28;20041;-32
2022/05/16 03:26:35;;;;;;;6.55;3.80;;;;;;;;;;5051043;28;20515;-31
2022/05/16 03:29:01;;;;;;;10.18;4.43;;;;;;;;;;5042300;28;20457;-31
2022/05/16 03:31:27;;;;;;;7.63;4.13;;;;;;;;;;5044045;28;20047;-31
2022/05/16 03:33:53;;;;;;;8.25;4.10;;;;;;;;;;5036128;28;20103;-32
2022/05/16 03:36:19;;;;;;;8.35;4.15;;;;;;;;;;5049958;28;20153;-31
2022/05/16 03:41:30;;;;;;;7.20;3.85;;;;;;;;;;5050007;28;20116;-31
2022/05/16 03:43:56;;;;;;;7.50;3.47;;;;;;;;;;5048020;28;20453;-30
2022/05/16 03:46:24;;;;;;;6.20;3.88;;;;;;;;;;5042750;28;20171;-32
2022/05/16 03:48:50;;;;;;;7.93;3.88;;;;;;;;;;5051516;28;20095;-29
2022/05/16 03:51:16;;;;;;;5.60;3.55;;;;;;;;;;5049870;28;20037;-28
2022/05/16 03:53:48;;;;;;;6.20;3.80;;;;;;;;;;5036825;28;20045;-29
2022/05/16 03:56:18;;;;;;;10.30;4.25;;;;;;;;;;5048860;28;20490;-29
2022/05/16 03:58:44;;;;;;;8.85;4.25;;;;;;;;;;5039583;28;20044;-29
2022/05/16 04:01:11;;;;;;;6.82;3.75;;;;;;;;;;5050629;28;20037;-29
2022/05/16 04:03:37;;;;;;;7.25;3.78;;;;;;;;;;5049287;28;20037;-28
2022/05/16 04:06:04;;;;;;;9.93;4.15;;;;;;;;;;5043506;28;20184;-29
2022/05/16 04:08:31;;;;;;;5.97;3.53;;;;;;;;;;5044098;28;20040;-29
2022/05/16 04:10:57;;;;;;;7.85;3.90;;;;;;;;;;5047397;28;20048;-28
2022/05/16 04:13:24;;;;;;;5.43;3.22;;;;;;;;;;5049795;28;20079;-30
2022/05/16 04:15:50;;;;;;;6.80;3.97;;;;;;;;;;5048239;28;20379;-29
2022/05/16 04:18:16;;;;;;;9.15;4.00;;;;;;;;;;5033985;28;20525;-28
2022/05/16 04:20:42;;;;;;;7.00;3.60;;;;;;;;;;5040416;28;20055;-29
2022/05/16 04:23:09;;;;;;;10.52;3.75;;;;;;;;;;5051341;28;20553;-29
2022/05/16 04:25:37;;;;;;;7.00;3.85;;;;;;;;;;5048731;28;20044;-28
2022/05/16 04:28:04;;;;;;;7.05;3.72;;;;;;;;;;5050788;28;20052;-28
2022/05/16 04:30:30;;;;;;;6.03;3.80;;;;;;;;;;5039990;28;20466;-29
2022/05/16 04:32:56;;;;;;;8.80;4.22;;;;;;;;;;5041848;28;20072;-30
2022/05/16 04:35:23;;;;;;;6.10;3.72;;;;;;;;;;5042482;28;20040;-29
2022/05/16 04:37:49;;;;;;;8.77;4.13;;;;;;;;;;5043589;28;20040;-30
2022/05/16 04:40:15;;;;;;;9.85;4.13;;;;;;;;;;5023935;28;20042;-29
2022/05/16 04:42:41;;;;;;;8.15;4.10;;;;;;;;;;5019132;28;20042;-29
2022/05/16 04:45:10;;;;;;;5.88;3.63;;;;;;;;;;5047459;28;20036;-29
2022/05/16 04:47:36;;;;;;;11.45;3.85;;;;;;;;;;5042334;28;20041;-29
2022/05/16 04:50:02;;;;;;;12.43;3.72;;;;;;;;;;5045160;28;20051;-29
2022/05/16 04:52:29;;;;;;;9.30;3.70;;;;;;;;;;5049245;28;20064;-29
2022/05/16 04:54:55;;;;;;;9.65;4.28;;;;;;;;;;5039081;28;20057;-29
2022/05/16 04:57:21;;;;;;;7.65;4.38;;;;;;;;;;5039980;28;20045;-29
2022/05/16 04:59:48;;;;;;;9.10;4.10;;;;;;;;;;5046000;28;20072;-29
2022/05/16 05:02:15;;;;;;;6.95;3.75;;;;;;;;;;5041893;28;20037;-29
2022/05/16 05:04:42;;;;;;;6.88;3.88;;;;;;;;;;5047697;28;20048;-29
2022/05/16 05:07:09;;;;;;;10.30;3.92;;;;;;;;;;5029941;28;20120;-29
2022/05/16 05:14:31;;;;;;;9.48;3.95;;;;;;;;;;5050643;28;20116;-29
2022/05/16 05:15:06;;;;;;;10.68;4.30;;;;;;;;;;5046066;28;20114;-30
2022/05/16 05:17:33;;;;;;;6.82;3.83;;;;;;;;;;5042758;28;20128;-28
2022/05/16 05:19:59;;;;;;;6.43;4.00;;;;;;;;;;5039423;28;20056;-29
2022/05/16 05:22:25;;;;;;;8.93;4.15;;;;;;;;;;5039996;28;20044;-29
2022/05/16 05:24:51;;;;;;;8.63;4.03;;;;;;;;;;5049023;28;20084;-29
2022/05/16 05:27:17;;;;;;;8.93;4.45;;;;;;;;;;5044481;28;20041;-29
2022/05/16 05:29:43;;;;;;;9.57;4.03;;;;;;;;;;5040765;28;20068;-29
2022/05/16 05:32:10;;;;;;;8.45;4.07;;;;;;;;;;5038360;28;20101;-29
2022/05/16 05:34:38;;;;;;;6.78;3.72;;;;;;;;;;5046891;28;20037;-30
2022/05/16 05:37:05;;;;;;;6.70;4.25;;;;;;;;;;5038553;28;20029;-29
2022/05/16 05:39:31;;;;;;;7.13;4.00;;;;;;;;;;5044320;28;20068;-29
2022/05/16 05:41:59;;;;;;;9.00;3.92;;;;;;;;;;5036538;28;20052;-31
2022/05/16 05:44:25;;;;;;;8.30;4.18;;;;;;;;;;5015188;28;20033;-29
2022/05/16 05:46:51;;;;;;;9.82;4.28;;;;;;;;;;5041804;28;20048;-30
2022/05/16 05:49:19;;;;;;;6.57;3.78;;;;;;;;;;5031769;28;20033;-29
2022/05/16 05:51:45;;;;;;;6.50;4.30;;;;;;;;;;5043750;28;20048;-29
2022/05/16 05:54:11;;;;;;;6.82;3.70;;;;;;;;;;5051404;28;20044;-30
2022/05/16 05:56:37;;;;;;;9.02;3.63;;;;;;;;;;5054473;28;20111;-29
2022/05/16 05:59:03;;;;;;;8.02;4.03;;;;;;;;;;5051478;28;20037;-29
2022/05/16 06:01:30;;;;;;;7.32;3.72;;;;;;;;;;5041925;28;20086;-29
2022/05/16 06:03:56;;;;;;;6.40;3.83;;;;;;;;;;5050511;28;20095;-29
2022/05/16 06:06:22;;;;;;;6.88;3.78;;;;;;;;;;5040470;28;20075;-29
2022/05/16 06:08:48;;;;;;;8.20;3.85;;;;;;;;;;5045655;28;20090;-33
2022/05/16 06:11:14;;;;;;;8.50;3.67;;;;;;;;;;5051106;28;20529;-33
2022/05/16 06:13:41;;;;;;;9.60;4.13;;;;;;;;;;5042666;28;20099;-32
2022/05/16 06:16:08;;;;;;;6.82;3.63;;;;;;;;;;5042648;28;20045;-31
2022/05/16 06:18:34;;;;;;;6.60;3.70;;;;;;;;;;5047031;28;20045;-32
2022/05/16 06:21:01;;;;;;;8.55;3.78;;;;;;;;;;5048160;28;20048;-32
2022/05/16 06:23:27;;;;;;;10.57;4.22;;;;;;;;;;5043093;28;20513;-32
2022/05/16 06:25:54;;;;;;;8.45;3.72;;;;;;;;;;5036173;28;20049;-33
2022/05/16 06:28:24;;;;;;;9.43;4.82;;;;;;;;;;5034171;28;20037;-31
2022/05/16 06:30:51;;;;;;;7.50;4.03;;;;;;;;;;5047903;28;20420;-33
2022/05/16 06:33:18;;;;;;;8.77;4.07;;;;;;;;;;5039340;28;20045;-31
2022/05/16 06:35:44;;;;;;;5.70;3.25;;;;;;;;;;5045456;28;20066;-33
2022/05/16 06:38:15;;;;;;;7.65;3.83;;;;;;;;;;5043133;28;20541;-30
2022/05/16 06:40:42;;;;;;;5.22;3.22;;;;;;;;;;5052658;28;20041;-32
2022/05/16 06:43:08;;;;;;;9.98;3.90;;;;;;;;;;5034364;28;20498;-32
2022/05/16 06:45:35;;;;;;;10.57;3.92;;;;;;;;;;5027203;28;20479;-31
2022/05/16 06:48:02;;;;;;;8.10;3.83;;;;;;;;;;5040417;28;20033;-30
2022/05/16 06:50:29;;;;;;;8.25;3.35;;;;;;;;;;5050846;28;20048;-29
2022/05/16 06:52:55;;;;;;;7.10;3.88;;;;;;;;;;5054102;28;20530;-29
2022/05/16 06:55:21;;;;;;;10.52;4.25;;;;;;;;;;5051731;28;20490;-32
2022/05/16 06:57:47;;;;;;;12.55;3.88;;;;;;;;;;5049099;28;20508;-34
2022/05/16 07:00:14;;;;;;;5.07;3.20;;;;;;;;;;5046796;28;20033;-32
2022/05/16 07:02:40;;;;;;;9.30;4.00;;;;;;;;;;5048508;28;20098;-31
2022/05/16 07:05:07;;;;;;;8.05;3.88;;;;;;;;;;5052401;28;20040;-33
2022/05/16 07:07:33;;;;;;;8.55;3.75;;;;;;;;;;5026940;28;20086;-31
2022/05/16 07:10:00;;;;;;;5.53;3.00;;;;;;;;;;5015672;28;20032;-34
2022/05/16 07:12:26;;;;;;;7.53;3.40;;;;;;;;;;5037046;28;20033;-31
2022/05/16 07:14:52;;;;;;;8.23;3.60;;;;;;;;;;5050213;28;20112;-32
2022/05/16 07:17:20;;;;;;;7.07;3.67;;;;;;;;;;5044391;28;20379;-35
2022/05/16 07:19:47;;;;;;;9.15;3.78;;;;;;;;;;5035400;28;20037;-33
2022/05/16 07:22:17;;;;;;;9.38;3.53;;;;;;;;;;5051335;28;20480;-32
2022/05/16 07:24:44;;;;;;;5.90;3.10;;;;;;;;;;5044800;28;20041;-32
2022/05/16 07:29:55;;;;;;;9.60;3.42;;;;;;;;;;5038809;28;20052;-32
2022/05/16 07:32:22;;;;;;;9.95;4.15;;;;;;;;;;5047038;28;20086;-31
2022/05/16 07:34:48;;;;;;;6.28;3.47;;;;;;;;;;5035889;28;20051;-33
2022/05/16 07:37:15;;;;;;;7.40;3.33;;;;;;;;;;5049297;28;20033;-32
2022/05/16 07:39:41;;;;;;;11.07;3.53;;;;;;;;;;5030922;28;20111;-30
2022/05/16 07:42:09;;;;;;;6.53;3.47;;;;;;;;;;5039161;28;20289;-32
2022/05/16 07:44:40;;;;;;;7.13;3.53;;;;;;;;;;5039809;28;20136;-32
2022/05/16 07:47:08;;;;;;;9.05;3.60;;;;;;;;;;5047992;28;20041;-34
2022/05/16 07:49:35;;;;;;;9.38;3.20;;;;;;;;;;5043852;28;20439;-35
2022/05/16 07:52:01;;;;;;;6.22;3.38;;;;;;;;;;5049011;28;20368;-33
2022/05/16 07:54:27;;;;;;;9.35;3.20;;;;;;;;;;5040542;28;20453;-29
2022/05/16 07:56:53;;;;;;;8.90;3.58;;;;;;;;;;5052177;28;20036;-29
2022/05/16 07:59:19;;;;;;;10.23;3.15;;;;;;;;;;5038828;28;20072;-30
2022/05/16 08:01:46;;;;;;;7.22;3.25;;;;;;;;;;5048787;28;20232;-30
2022/05/16 08:04:12;;;;;;;6.30;2.83;;;;;;;;;;5017622;28;20040;-30
2022/05/16 08:06:38;;;;;;;7.75;3.63;;;;;;;;;;5049190;28;20037;-29
2022/05/16 08:11:49;;;;;;;8.75;3.40;;;;;;;;;;5049822;28;20040;-30
2022/05/16 08:14:15;;;;;;;10.20;4.35;;;;;;;;;;5002074;28;20440;-31
2022/05/16 08:16:41;;;;;;;8.63;3.33;;;;;;;;;;5050376;28;20037;-31
2022/05/16 08:19:08;;;;;;;11.80;3.95;;;;;;;;;;5050814;28;20076;-29
2022/05/16 08:21:35;;;;;;;8.85;3.38;;;;;;;;;;5036618;28;20041;-30
2022/05/16 08:24:02;;;;;;;7.47;3.33;;;;;;;;;;5032077;28;20041;-30
2022/05/16 08:26:29;;;;;;;7.35;3.67;;;;;;;;;;5011800;28;20513;-31
2022/05/16 08:28:55;;;;;;;9.13;3.58;;;;;;;;;;5047693;28;20033;-30
2022/05/16 08:31:21;;;;;;;7.53;3.33;;;;;;;;;;5045112;28;20558;-30
2022/05/16 08:33:47;;;;;;;7.60;3.75;;;;;;;;;;5050246;28;20036;-30
2022/05/16 08:42:02;;;;;;;14.95;4.35;;;;;;;;;;5043723;28;20048;-30
2022/05/16 08:44:29;;;;;;;12.50;3.95;;;;;;;;;;5037247;28;20048;-30
2022/05/16 08:46:55;;;;;;;6.18;3.30;;;;;;;;;;5027558;28;20510;-31
2022/05/16 08:49:25;;;;;;;6.05;2.92;;;;;;;;;;5033875;28;20047;-29
2022/05/16 08:51:55;;;;;;;10.65;3.20;;;;;;;;;;5046136;28;20541;-30
2022/05/16 08:54:33;;;;;;;6.88;3.50;;;;;;;;;;5032775;28;20075;-30
2022/05/16 08:57:01;;;;;;;6.00;3.50;;;;;;;;;;5036760;28;20048;-29
2022/05/16 08:59:28;;;;;;;7.18;3.33;;;;;;;;;;5043533;28;20053;-29
2022/05/16 09:01:56;;;;;;;8.48;2.90;;;;;;;;;;5039456;28;20048;-29
2022/05/16 09:04:51;;;;;;;10.07;3.08;;;;;;;;;;5034329;28;20034;-30
2022/05/16 09:07:43;;;;;;;6.75;3.63;;;;;;;;;;5029748;28;20048;-31
2022/05/16 09:10:21;;;;;;;6.80;3.20;;;;;;;;;;5040466;28;20044;-30
2022/05/16 09:13:01;;;;;;;8.15;3.58;;;;;;;;;;5050312;28;20075;-31
2022/05/16 09:15:30;;;;;;;9.07;3.03;;;;;;;;;;5035497;28;20052;-29
2022/05/16 09:17:56;;;;;;;6.82;3.55;;;;;;;;;;5030779;28;20049;-29
2022/05/16 09:20:22;;;;;;;9.18;3.80;;;;;;;;;;5042527;28;20052;-30
2022/05/16 09:23:00;;;;;;;7.43;3.38;;;;;;;;;;5036828;28;20069;-29
2022/05/16 09:25:33;;;;;;;6.15;3.20;;;;;;;;;;5047575;28;20052;-30
2022/05/16 09:30:49;;;;;;;7.03;3.55;;;;;;;;;;5042697;28;20049;-30
2022/05/16 09:33:21;;;;;;;8.57;3.42;;;;;;;;;;5052327;28;20045;-30
2022/05/16 09:35:52;;;;;;;7.25;3.15;;;;;;;;;;5047673;28;20040;-30
2022/05/16 09:38:19;;;;;;;9.38;4.03;;;;;;;;;;5048827;28;20056;-30
2022/05/16 09:41:02;;;;;;;9.82;3.38;;;;;;;;;;5048615;28;20554;-31
2022/05/16 09:43:33;;;;;;;8.20;3.53;;;;;;;;;;5045808;28;20432;-30
2022/05/16 09:46:01;;;;;;;8.25;3.78;;;;;;;;;;5049186;28;20478;-30
2022/05/16 09:48:27;;;;;;;7.78;3.58;;;;;;;;;;5043648;28;20063;-30
2022/05/16 09:51:01;;;;;;;8.95;3.78;;;;;;;;;;5053766;28;20041;-30
2022/05/16 09:53:38;;;;;;;8.65;3.35;;;;;;;;;;5050868;28;20123;-31
2022/05/16 09:56:05;;;;;;;8.02;3.50;;;;;;;;;;5054020;28;20079;-30
2022/05/16 09:58:52;;;;;;;7.90;3.50;;;;;;;;;;5053602;28;20049;-30
2022/05/16 10:01:38;;;;;;;7.65;3.40;;;;;;;;;;5037129;28;20056;-30
2022/05/16 10:04:24;;;;;;;4.82;2.97;;;;;;;;;;5045597;28;20029;-29
2022/05/16 10:07:03;;;;;;;8.70;3.38;;;;;;;;;;5041828;28;20112;-30
2022/05/16 10:09:33;;;;;;;7.03;2.95;;;;;;;;;;5041137;28;20628;-30
2022/05/16 10:11:59;;;;;;;5.10;3.30;;;;;;;;;;5045016;28;20045;-30
2022/05/16 10:14:26;;;;;;;8.68;3.92;;;;;;;;;;5045685;28;20038;-30
2022/05/16 10:16:53;;;;;;;4.78;3.55;;;;;;;;;;5044154;28;20041;-30
2022/05/16 10:19:21;;;;;;;10.05;3.55;;;;;;;;;;5049016;28;20041;-31
2022/05/16 10:21:54;;;;;;;6.43;3.50;;;;;;;;;;5051570;28;20054;-32
2022/05/16 10:24:21;;;;;;;8.07;3.80;;;;;;;;;;5053150;28;20040;-31
2022/05/16 10:26:48;;;;;;;5.15;3.22;;;;;;;;;;5037700;28;20120;-31
2022/05/16 10:29:18;;;;;;;9.02;3.63;;;;;;;;;;5040745;28;20095;-30
2022/05/16 10:34:35;;;;;;;7.18;3.13;;;;;;;;;;5045030;28;20042;-30
2022/05/16 10:37:02;;;;;;;7.38;3.40;;;;;;;;;;5046722;28;20041;-30
2022/05/16 10:39:30;;;;;;;6.45;3.67;;;;;;;;;;5047746;28;20557;-29
2022/05/16 10:42:02;;;;;;;5.03;3.60;;;;;;;;;;5044493;28;20041;-30
2022/05/16 10:44:29;;;;;;;5.78;3.55;;;;;;;;;;5052227;28;20471;-30
2022/05/16 10:47:16;;;;;;;6.18;3.58;;;;;;;;;;5044319;28;20040;-31
2022/05/16 10:50:06;;;;;;;7.95;4.07;;;;;;;;;;5051249;28;20527;-30
2022/05/16 10:52:35;;;;;;;5.38;3.30;;;;;;;;;;5039476;28;20071;-30
2022/05/16 10:55:01;;;;;;;6.43;3.65;;;;;;;;;;5052317;28;20037;-29
2022/05/16 10:57:38;;;;;;;6.97;4.00;;;;;;;;;;5046808;28;20045;-29
2022/05/16 11:00:14;;;;;;;6.68;3.65;;;;;;;;;;5039441;28;20045;-29
2022/05/16 11:02:56;;;;;;;7.55;3.72;;;;;;;;;;5041675;28;20045;-30
2022/05/16 11:05:22;;;;;;;7.28;4.15;;;;;;;;;;5048149;28;20112;-29
2022/05/16 11:08:03;;;;;;;7.88;3.85;;;;;;;;;;5049848;28;20134;-29
2022/05/16 11:10:54;;;;;;;13.30;4.40;;;;;;;;;;5044034;28;20032;-30
2022/05/16 11:13:26;;;;;;;9.80;4.18;;;;;;;;;;5031268;28;20061;-29
2022/05/16 11:15:57;;;;;;;7.30;4.07;;;;;;;;;;5037033;28;20045;-29
2022/05/16 11:18:43;;;;;;;9.68;4.15;;;;;;;;;;5037234;28;20368;-29
2022/05/16 11:21:32;;;;;;;8.02;3.88;;;;;;;;;;5038220;28;20065;-29
2022/05/16 11:24:03;;;;;;;9.75;4.03;;;;;;;;;;5024004;28;20052;-29
2022/05/16 11:26:35;;;;;;;8.90;4.45;;;;;;;;;;5046476;28;20033;-31
2022/05/16 11:29:17;;;;;;;7.35;3.97;;;;;;;;;;5042168;28;20080;-31
2022/05/16 11:32:04;;;;;;;6.18;4.50;;;;;;;;;;5041493;28;20515;-30
2022/05/16 11:34:40;;;;;;;7.43;4.45;;;;;;;;;;5029993;28;20402;-32
2022/05/16 11:37:27;;;;;;;10.50;4.40;;;;;;;;;;5045492;28;20473;-31
2022/05/16 11:40:01;;;;;;;8.05;4.25;;;;;;;;;;5039936;28;20052;-31
2022/05/16 11:42:54;;;;;;;9.27;4.15;;;;;;;;;;5039731;28;20069;-29
2022/05/16 11:45:20;;;;;;;5.38;3.88;;;;;;;;;;5041449;28;20503;-32
2022/05/16 11:47:56;;;;;;;7.05;4.35;;;;;;;;;;5051908;28;20040;-33
2022/05/16 11:50:43;;;;;;;6.63;4.22;;;;;;;;;;5041841;28;20033;-36
2022/05/16 11:53:30;;;;;;;7.55;4.07;;;;;;;;;;5045221;28;20083;-33
2022/05/16 12:01:30;;;;;;;8.82;4.10;;;;;;;;;;5025989;28;20052;-33
2022/05/16 12:04:14;;;;;;;9.10;4.10;;;;;;;;;;5052149;28;20486;-33
2022/05/16 12:06:53;;;;;;;10.10;4.50;;;;;;;;;;5044383;28;20502;-34
2022/05/16 12:09:27;;;;;;;10.57;4.13;;;;;;;;;;5046266;28;20037;-33
2022/05/16 12:11:53;;;;;;;7.65;3.90;;;;;;;;;;5036965;28;20045;-32
2022/05/16 12:14:29;;;;;;;7.88;3.88;;;;;;;;;;5033182;28;20045;-33
2022/05/16 12:16:57;;;;;;;5.38;3.50;;;;;;;;;;5038987;28;20167;-33
2022/05/16 12:19:29;;;;;;;5.13;3.20;;;;;;;;;;5044030;28;20090;-36
2022/05/16 12:22:00;;;;;;;10.40;3.33;;;;;;;;;;5037181;28;20040;-33
2022/05/16 12:24:49;;;;;;;5.78;3.30;;;;;;;;;;5042404;28;20621;-31
2022/05/16 12:27:16;;;;;;;4.95;3.50;;;;;;;;;;4984244;28;20071;-32
2022/05/16 12:29:49;;;;;;;8.43;3.35;;;;;;;;;;5040141;28;20040;-34
2022/05/16 12:32:42;;;;;;;4.90;3.42;;;;;;;;;;5034829;28;20110;-31
2022/05/16 12:35:14;;;;;;;4.28;3.30;;;;;;;;;;5039047;28;20040;-35
2022/05/16 12:37:41;;;;;;;4.93;3.20;;;;;;;;;;5038178;28;20048;-35
2022/05/16 12:40:09;;;;;;;5.03;3.00;;;;;;;;;;5037149;28;20080;-34
2022/05/16 12:42:35;;;;;;;6.97;3.50;;;;;;;;;;5048015;28;20033;-32
2022/05/16 12:45:05;;;;;;;6.68;3.42;;;;;;;;;;5017220;28;20076;-33
2022/05/16 12:47:37;;;;;;;5.85;3.63;;;;;;;;;;5022025;28;20037;-34
2022/05/16 12:50:23;;;;;;;5.55;3.63;;;;;;;;;;5031086;28;20037;-33
2022/05/16 12:52:55;;;;;;;6.30;3.17;;;;;;;;;;5037706;28;20099;-33
2022/05/16 12:55:21;;;;;;;6.53;3.83;;;;;;;;;;5048438;28;20483;-33
2022/05/16 12:58:09;;;;;;;5.07;3.50;;;;;;;;;;5046055;28;20055;-35
2022/05/16 13:00:55;;;;;;;6.15;3.78;;;;;;;;;;5049192;28;20041;-32
2022/05/16 13:03:24;;;;;;;8.93;4.13;;;;;;;;;;5049964;28;20044;-31
2022/05/16 13:06:02;;;;;;;5.55;3.08;;;;;;;;;;5050201;28;20076;-33
2022/05/16 13:08:31;;;;;;;7.57;4.18;;;;;;;;;;5047177;28;20129;-32
2022/05/16 13:11:04;;;;;;;6.65;3.80;;;;;;;;;;5051186;28;20494;-32
2022/05/16 13:13:56;;;;;;;5.80;3.50;;;;;;;;;;5053277;28;20518;-31
2022/05/16 13:16:28;;;;;;;5.78;3.80;;;;;;;;;;5042563;28;20041;-34
2022/05/16 13:19:01;;;;;;;4.82;3.60;;;;;;;;;;5052548;28;20150;-34
2022/05/16 13:21:40;;;;;;;6.53;3.88;;;;;;;;;;5050942;28;20041;-34
2022/05/16 13:24:11;;;;;;;6.40;4.03;;;;;;;;;;5046380;28;20041;-35
2022/05/16 13:29:21;;;;;;;6.78;4.38;;;;;;;;;;5047733;28;20399;-31
2022/05/16 13:31:50;;;;;;;6.53;4.07;;;;;;;;;;5047715;28;21459;-33
2022/05/16 13:34:51;;;;;;;6.13;4.05;;;;;;;;;;5038474;28;20513;-34
2022/05/16 13:37:22;;;;;;;6.78;3.60;;;;;;;;;;4971733;28;20375;-33
2022/05/16 13:39:50;;;;;;;8.07;3.38;;;;;;;;;;5030327;28;20136;-37
2022/05/16 13:42:20;;;;;;;5.40;3.50;;;;;;;;;;5035694;28;20045;-32
2022/05/16 13:44:51;;;;;;;7.72;4.18;;;;;;;;;;5034050;28;20069;-31
2022/05/16 13:47:21;;;;;;;5.63;3.97;;;;;;;;;;5034427;28;20038;-31
2022/05/16 13:49:47;;;;;;;7.55;4.18;;;;;;;;;;5033697;28;20398;-31
2022/05/16 13:52:27;;;;;;;7.18;4.78;;;;;;;;;;5033966;28;20072;-31
2022/05/16 13:54:56;;;;;;;6.93;5.40;;;;;;;;;;5034021;28;20092;-32
2022/05/16 13:57:23;;;;;;;6.88;5.28;;;;;;;;;;5035335;28;20037;-34
2022/05/16 14:00:07;;;;;;;8.52;5.43;;;;;;;;;;5052824;28;20139;-33
2022/05/16 14:02:34;;;;;;;8.38;7.03;;;;;;;;;;5048672;28;20041;-32
2022/05/16 14:05:06;;;;;;;6.35;5.53;;;;;;;;;;5044742;28;20057;-34
2022/05/16 14:07:34;;;;;;;9.20;5.22;;;;;;;;;;5044895;28;20033;-32
2022/05/16 14:10:01;;;;;;;8.40;5.85;;;;;;;;;;5049871;28;20430;-32
2022/05/16 14:12:35;;;;;;;8.27;5.88;;;;;;;;;;5050023;28;20040;-34
2022/05/16 14:15:10;;;;;;;7.30;5.25;;;;;;;;;;5049307;28;20043;-32
2022/05/16 14:17:41;;;;;;;8.98;5.43;;;;;;;;;;5043496;28;20298;-34
2022/05/16 14:20:12;;;;;;;7.18;5.18;;;;;;;;;;5047003;28;20064;-32
2022/05/16 14:22:43;;;;;;;8.80;5.72;;;;;;;;;;5051997;28;20037;-33
2022/05/16 14:25:11;;;;;;;8.00;5.60;;;;;;;;;;5041725;28;20040;-32
2022/05/16 14:27:45;;;;;;;9.57;5.88;;;;;;;;;;5047778;28;20033;-33
2022/05/16 14:30:11;;;;;;;6.80;5.97;;;;;;;;;;5043741;28;20453;-33
2022/05/16 14:32:38;;;;;;;8.23;5.95;;;;;;;;;;5040636;28;20033;-32
2022/05/16 14:35:09;;;;;;;9.20;6.75;;;;;;;;;;5024147;28;21363;-33
2022/05/16 14:37:37;;;;;;;9.32;6.15;;;;;;;;;;5041359;28;20594;-33
2022/05/16 14:40:03;;;;;;;6.78;6.15;;;;;;;;;;5038947;28;20245;-35
2022/05/16 14:42:32;;;;;;;9.98;6.80;;;;;;;;;;5036824;28;20403;-33
2022/05/16 14:45:07;;;;;;;11.75;7.60;;;;;;;;;;5043625;28;20033;-32
2022/05/16 14:47:44;;;;;;;8.80;7.60;;;;;;;;;;5040916;28;20048;-31
2022/05/16 14:50:13;;;;;;;9.75;8.00;;;;;;;;;;5043106;28;20064;-32
2022/05/16 14:52:41;;;;;;;11.52;7.40;;;;;;;;;;5042725;28;20055;-33
2022/05/16 14:55:09;;;;;;;14.73;8.73;;;;;;;;;;5047085;28;20099;-32
2022/05/16 14:57:35;;;;;;;15.10;9.23;;;;;;;;;;5041208;28;20095;-32
2022/05/16 15:00:01;;;;;;;10.98;8.32;;;;;;;;;;5042814;28;20033;-33
2022/05/16 15:05:12;;;;;;;12.48;8.45;;;;;;;;;;5039123;28;20045;-32
2022/05/16 15:07:40;;;;;;;13.45;9.80;;;;;;;;;;5044291;28;20157;-31
2022/05/16 15:10:07;;;;;;;18.77;10.80;;;;;;;;;;5046703;28;20196;-32
2022/05/16 15:12:34;;;;;;;13.52;10.48;;;;;;;;;;5034729;28;20040;-34
2022/05/16 15:15:02;;;;;;;12.85;10.80;;;;;;;;;;5035727;28;20041;-35
2022/05/16 15:17:28;;;;;;;14.27;12.70;;;;;;;;;;5039479;28;20503;-32
2022/05/16 15:19:54;;;;;;;15.85;11.75;;;;;;;;;;5046659;28;20208;-32
2022/05/16 15:22:20;;;;;;;16.67;13.48;;;;;;;;;;5043369;28;20254;-31
2022/05/16 15:24:56;;;;;;;15.50;14.05;;;;;;;;;;5039672;28;20217;-32
2022/05/16 15:27:26;;;;;;;17.90;15.98;;;;;;;;;;5039495;28;20120;-33
2022/05/16 15:29:52;;;;;;;21.60;17.65;;;;;;;;;;5045252;28;20071;-32
2022/05/16 15:32:20;;;;;;;22.00;19.38;;;;;;;;;;5046468;28;20120;-32
2022/05/16 15:34:46;;;;;;;22.48;20.02;;;;;;;;;;5041970;28;20045;-32